sensor_id;sensor_type;location;lat;lon;timestamp;pressure;altitude;pressure_sealevel;temperature;humidity
15193;BME280;7697;51.630;7.484;2024-01-30T00:00:49;-17333.97;;;7.74;96.52
15193;BME280;7697;51.630;7.484;2024-01-30T00:05:52;-17336.84;;;7.83;96.56
15193;BME280;7697;51.630;7.484;2024-01-30T00:10:54;-17340.53;;;7.94;97.26
15193;BME280;7697;51.630;7.484;2024-01-30T00:15:55;-17342.19;;;7.99;97.42
15193;BME280;7697;51.630;7.484;2024-01-30T00:20:59;-17339.69;;;7.91;96.65
15193;BME280;7697;51.630;7.484;2024-01-30T00:26:00;-17337.00;;;7.83;97.51
15193;BME280;7697;51.630;7.484;2024-01-30T00:31:02;-17339.84;;;7.92;97.73
15193;BME280;7697;51.630;7.484;2024-01-30T00:36:07;-17342.53;;;8.00;97.89
15193;BME280;7697;51.630;7.484;2024-01-30T00:41:09;-17344.53;;;8.06;98.78
15193;BME280;7697;51.630;7.484;2024-01-30T00:46:11;-17347.22;;;8.14;98.49
15193;BME280;7697;51.630;7.484;2024-01-30T00:51:14;-17347.41;;;8.15;98.60
15193;BME280;7697;51.630;7.484;2024-01-30T00:56:16;-17349.91;;;8.22;98.65
15193;BME280;7697;51.630;7.484;2024-01-30T01:01:18;-17348.75;;;8.19;98.57
15193;BME280;7697;51.630;7.484;2024-01-30T01:06:21;-17347.56;;;8.15;98.63
15193;BME280;7697;51.630;7.484;2024-01-30T01:11:23;-17344.88;;;8.07;97.74
15193;BME280;7697;51.630;7.484;2024-01-30T01:16:25;-17343.72;;;8.04;98.54
15193;BME280;7697;51.630;7.484;2024-01-30T01:21:28;-17344.22;;;8.05;99.13
15193;BME280;7697;51.630;7.484;2024-01-30T01:26:29;-17342.88;;;8.01;98.75
15193;BME280;7697;51.630;7.484;2024-01-30T01:31:31;-17343.72;;;8.04;98.67
15193;BME280;7697;51.630;7.484;2024-01-30T01:36:34;-17343.22;;;8.02;98.81
15193;BME280;7697;51.630;7.484;2024-01-30T01:41:36;-17343.22;;;8.02;99.21
15193;BME280;7697;51.630;7.484;2024-01-30T01:46:38;-17344.22;;;8.05;99.48
15193;BME280;7697;51.630;7.484;2024-01-30T01:51:42;-17346.56;;;8.12;98.86
15193;BME280;7697;51.630;7.484;2024-01-30T01:56:45;-17349.06;;;8.20;99.16
15193;BME280;7697;51.630;7.484;2024-01-30T02:01:47;-17348.06;;;8.17;99.51
15193;BME280;7697;51.630;7.484;2024-01-30T02:06:51;-17351.75;;;8.28;99.79
15193;BME280;7697;51.630;7.484;2024-01-30T02:11:53;-17353.94;;;8.35;99.48
15193;BME280;7697;51.630;7.484;2024-01-30T02:16:55;-17353.94;;;8.35;99.47
15193;BME280;7697;51.630;7.484;2024-01-30T02:21:58;-17356.28;;;8.42;99.59
15193;BME280;7697;51.630;7.484;2024-01-30T02:27:00;-17357.31;;;8.45;99.16
15193;BME280;7697;51.630;7.484;2024-01-30T02:32:01;-17358.66;;;8.49;99.70
15193;BME280;7697;51.630;7.484;2024-01-30T02:37:05;-17358.47;;;8.48;99.46
15193;BME280;7697;51.630;7.484;2024-01-30T02:42:06;-17361.16;;;8.56;99.46
15193;BME280;7697;51.630;7.484;2024-01-30T02:47:08;-17360.31;;;8.54;98.99
15193;BME280;7697;51.630;7.484;2024-01-30T02:52:11;-17359.66;;;8.52;99.72
15193;BME280;7697;51.630;7.484;2024-01-30T02:57:13;-17361.84;;;8.58;99.43
15193;BME280;7697;51.630;7.484;2024-01-30T03:02:14;-17361.00;;;8.56;99.36
15193;BME280;7697;51.630;7.484;2024-01-30T03:07:18;-17360.50;;;8.54;98.84
15193;BME280;7697;51.630;7.484;2024-01-30T03:12:19;-17361.84;;;8.58;99.30
15193;BME280;7697;51.630;7.484;2024-01-30T03:17:21;-17359.66;;;8.52;99.46
15193;BME280;7697;51.630;7.484;2024-01-30T03:22:25;-17360.16;;;8.53;99.13
15193;BME280;7697;51.630;7.484;2024-01-30T03:27:27;-17360.31;;;8.54;99.51
15193;BME280;7697;51.630;7.484;2024-01-30T03:32:29;-17361.66;;;8.58;99.32
15193;BME280;7697;51.630;7.484;2024-01-30T03:37:32;-17360.50;;;8.54;99.08
15193;BME280;7697;51.630;7.484;2024-01-30T03:42:34;-17359.66;;;8.52;98.89
15193;BME280;7697;51.630;7.484;2024-01-30T03:47:36;-17361.00;;;8.56;99.46
15193;BME280;7697;51.630;7.484;2024-01-30T03:52:39;-17360.66;;;8.55;98.92
15193;BME280;7697;51.630;7.484;2024-01-30T03:57:43;-17358.97;;;8.50;99.53
15193;BME280;7697;51.630;7.484;2024-01-30T04:02:45;-17359.97;;;8.53;99.79
15193;BME280;7697;51.630;7.484;2024-01-30T04:07:48;-17360.31;;;8.54;99.04
15193;BME280;7697;51.630;7.484;2024-01-30T04:12:49;-17358.97;;;8.50;99.65
15193;BME280;7697;51.630;7.484;2024-01-30T04:17:52;-17357.13;;;8.44;100.00
15193;BME280;7697;51.630;7.484;2024-01-30T04:22:55;-17356.28;;;8.42;100.00
15193;BME280;7697;51.630;7.484;2024-01-30T04:27:56;-17355.63;;;8.40;99.88
15193;BME280;7697;51.630;7.484;2024-01-30T04:32:58;-17356.28;;;8.42;99.88
15193;BME280;7697;51.630;7.484;2024-01-30T04:38:02;-17358.97;;;8.50;100.00
15193;BME280;7697;51.630;7.484;2024-01-30T04:43:03;-17359.31;;;8.51;100.00
15193;BME280;7697;51.630;7.484;2024-01-30T04:48:06;-17361.16;;;8.56;99.27
15193;BME280;7697;51.630;7.484;2024-01-30T04:53:09;-17359.81;;;8.52;100.00
15193;BME280;7697;51.630;7.484;2024-01-30T04:58:10;-17357.81;;;8.46;99.11
15193;BME280;7697;51.630;7.484;2024-01-30T05:03:12;-17351.41;;;8.27;99.61
15193;BME280;7697;51.630;7.484;2024-01-30T05:08:15;-17346.56;;;8.12;99.58
15193;BME280;7697;51.630;7.484;2024-01-30T05:13:17;-17343.72;;;8.04;99.20
15193;BME280;7697;51.630;7.484;2024-01-30T05:18:19;-17339.19;;;7.90;99.16
15193;BME280;7697;51.630;7.484;2024-01-30T05:23:22;-17334.81;;;7.77;99.36
15193;BME280;7697;51.630;7.484;2024-01-30T05:28:24;-17332.97;;;7.71;99.14
15193;BME280;7697;51.630;7.484;2024-01-30T05:33:25;-17332.47;;;7.70;98.99
15193;BME280;7697;51.630;7.484;2024-01-30T05:38:28;-17331.47;;;7.67;99.20
15193;BME280;7697;51.630;7.484;2024-01-30T05:43:30;-17329.78;;;7.62;99.36
15193;BME280;7697;51.630;7.484;2024-01-30T05:48:32;-17327.78;;;7.56;99.49
15193;BME280;7697;51.630;7.484;2024-01-30T05:53:37;-17325.75;;;7.49;98.77
15193;BME280;7697;51.630;7.484;2024-01-30T05:58:38;-17321.06;;;7.35;99.29
15193;BME280;7697;51.630;7.484;2024-01-30T06:03:40;-17320.91;;;7.35;99.03
15193;BME280;7697;51.630;7.484;2024-01-30T06:08:45;-17320.06;;;7.32;98.93
15193;BME280;7697;51.630;7.484;2024-01-30T06:13:46;-17320.41;;;7.33;99.30
15193;BME280;7697;51.630;7.484;2024-01-30T06:18:48;-17320.41;;;7.33;99.14
15193;BME280;7697;51.630;7.484;2024-01-30T06:23:51;-17319.41;;;7.30;99.77
15193;BME280;7697;51.630;7.484;2024-01-30T06:28:53;-17317.72;;;7.25;100.00
15193;BME280;7697;51.630;7.484;2024-01-30T06:33:55;-17317.22;;;7.24;100.00
15193;BME280;7697;51.630;7.484;2024-01-30T06:38:58;-17317.03;;;7.23;99.37
15193;BME280;7697;51.630;7.484;2024-01-30T06:44:01;-17316.22;;;7.21;99.86
15193;BME280;7697;51.630;7.484;2024-01-30T06:49:03;-17315.19;;;7.18;100.00
15193;BME280;7697;51.630;7.484;2024-01-30T06:54:06;-17314.38;;;7.15;99.88
15193;BME280;7697;51.630;7.484;2024-01-30T06:59:08;-17314.03;;;7.14;100.00
15193;BME280;7697;51.630;7.484;2024-01-30T07:04:10;-17314.69;;;7.16;100.00
15193;BME280;7697;51.630;7.484;2024-01-30T07:09:13;-17313.84;;;7.13;100.00
15193;BME280;7697;51.630;7.484;2024-01-30T09:52:18;-17436.47;;;10.84;99.38
15193;BME280;7697;51.630;7.484;2024-01-30T09:57:20;-17440.16;;;10.95;99.69
15193;BME280;7697;51.630;7.484;2024-01-30T10:02:23;-17443.19;;;11.04;99.16
15193;BME280;7697;51.630;7.484;2024-01-30T10:07:27;-17444.88;;;11.09;98.65
15193;BME280;7697;51.630;7.484;2024-01-30T10:12:30;-17447.56;;;11.17;98.31
15193;BME280;7697;51.630;7.484;2024-01-30T10:17:32;-17450.91;;;11.27;98.54
15193;BME280;7697;51.630;7.484;2024-01-30T10:22:37;-17453.91;;;11.37;97.71
15193;BME280;7697;51.630;7.484;2024-01-30T10:27:39;-17458.28;;;11.50;97.41
15193;BME280;7697;51.630;7.484;2024-01-30T10:32:41;-17460.63;;;11.57;96.97
15193;BME280;7697;51.630;7.484;2024-01-30T10:37:47;-17467.53;;;11.78;96.80
15193;BME280;7697;51.630;7.484;2024-01-30T10:42:50;-17476.75;;;12.06;96.28
15193;BME280;7697;51.630;7.484;2024-01-30T10:47:55;-17490.84;;;12.48;95.36
15193;BME280;7697;51.630;7.484;2024-01-30T10:53:00;-17498.56;;;12.71;93.86
15193;BME280;7697;51.630;7.484;2024-01-30T10:58:03;-17504.94;;;12.91;93.33
15193;BME280;7697;51.630;7.484;2024-01-30T11:03:05;-17510.28;;;13.07;93.12
15193;BME280;7697;51.630;7.484;2024-01-30T11:08:13;-17522.22;;;13.43;91.89
15193;BME280;7697;51.630;7.484;2024-01-30T11:13:15;-17530.59;;;13.68;90.38
15193;BME280;7697;51.630;7.484;2024-01-30T11:18:23;-17535.47;;;13.83;89.26
15193;BME280;7697;51.630;7.484;2024-01-30T11:23:27;-17540.50;;;13.98;89.17
15193;BME280;7697;51.630;7.484;2024-01-30T11:28:33;-17550.41;;;14.28;88.13
15193;BME280;7697;51.630;7.484;2024-01-30T11:33:35;-17553.94;;;14.39;87.06
15193;BME280;7697;51.630;7.484;2024-01-30T11:38:38;-17555.78;;;14.44;86.87
15193;BME280;7697;51.630;7.484;2024-01-30T11:43:40;-17555.44;;;14.43;87.30
15193;BME280;7697;51.630;7.484;2024-01-30T11:48:42;-17554.28;;;14.40;87.25
15193;BME280;7697;51.630;7.484;2024-01-30T11:53:49;-17555.44;;;14.43;87.55
15193;BME280;7697;51.630;7.484;2024-01-30T11:58:51;-17554.28;;;14.40;88.19
15193;BME280;7697;51.630;7.484;2024-01-30T12:03:55;-17551.56;;;14.32;88.23
15193;BME280;7697;51.630;7.484;2024-01-30T12:09:00;-17548.88;;;14.23;88.62
15193;BME280;7697;51.630;7.484;2024-01-30T12:14:04;-17548.56;;;14.22;88.30
15193;BME280;7697;51.630;7.484;2024-01-30T12:19:06;-17547.22;;;14.18;88.56
15193;BME280;7697;51.630;7.484;2024-01-30T12:24:10;-17545.88;;;14.14;88.48
15193;BME280;7697;51.630;7.484;2024-01-30T12:29:11;-17543.69;;;14.08;89.21
15193;BME280;7697;51.630;7.484;2024-01-30T12:34:16;-17543.34;;;14.07;89.39
15193;BME280;7697;51.630;7.484;2024-01-30T12:39:22;-17543.84;;;14.08;89.44
15193;BME280;7697;51.630;7.484;2024-01-30T12:44:24;-17541.50;;;14.01;89.91
15193;BME280;7697;51.630;7.484;2024-01-30T12:49:26;-17540.16;;;13.97;90.17
15193;BME280;7697;51.630;7.484;2024-01-30T12:54:29;-17542.84;;;14.05;90.07
15193;BME280;7697;51.630;7.484;2024-01-30T12:59:30;-17541.84;;;14.02;90.32
15193;BME280;7697;51.630;7.484;2024-01-30T13:04:32;-17542.00;;;14.03;90.32
15193;BME280;7697;51.630;7.484;2024-01-30T13:09:35;-17542.53;;;14.04;89.93
15193;BME280;7697;51.630;7.484;2024-01-30T13:14:38;-17541.50;;;14.01;90.84
15193;BME280;7697;51.630;7.484;2024-01-30T13:19:40;-17540.16;;;13.97;91.08
15193;BME280;7697;51.630;7.484;2024-01-30T13:24:43;-17540.00;;;13.97;90.80
15193;BME280;7697;51.630;7.484;2024-01-30T13:29:44;-17539.50;;;13.95;90.61
15193;BME280;7697;51.630;7.484;2024-01-30T13:34:46;-17537.16;;;13.88;91.13
15193;BME280;7697;51.630;7.484;2024-01-30T13:39:50;-17536.66;;;13.86;91.00
15193;BME280;7697;51.630;7.484;2024-01-30T13:44:51;-17536.16;;;13.85;91.48
15193;BME280;7697;51.630;7.484;2024-01-30T13:49:53;-17534.13;;;13.79;91.23
15193;BME280;7697;51.630;7.484;2024-01-30T13:54:56;-17534.28;;;13.79;91.06
15193;BME280;7697;51.630;7.484;2024-01-30T13:59:58;-17532.44;;;13.74;91.37
15193;BME280;7697;51.630;7.484;2024-01-30T14:05:00;-17530.59;;;13.68;92.16
15193;BME280;7697;51.630;7.484;2024-01-30T14:10:03;-17529.59;;;13.65;92.30
15193;BME280;7697;51.630;7.484;2024-01-30T14:15:07;-17528.75;;;13.63;92.14
15193;BME280;7697;51.630;7.484;2024-01-30T14:20:10;-17527.75;;;13.60;92.58
15193;BME280;7697;51.630;7.484;2024-01-30T14:25:13;-17526.75;;;13.57;92.21
15193;BME280;7697;51.630;7.484;2024-01-30T14:30:17;-17526.91;;;13.57;92.72
15193;BME280;7697;51.630;7.484;2024-01-30T14:35:19;-17526.75;;;13.57;92.69
15193;BME280;7697;51.630;7.484;2024-01-30T14:40:22;-17526.59;;;13.56;92.76
15193;BME280;7697;51.630;7.484;2024-01-30T14:45:24;-17526.06;;;13.55;91.94
15193;BME280;7697;51.630;7.484;2024-01-30T14:50:25;-17525.75;;;13.53;92.14
15193;BME280;7697;51.630;7.484;2024-01-30T14:55:30;-17525.75;;;13.53;92.36
15193;BME280;7697;51.630;7.484;2024-01-30T15:00:31;-17526.06;;;13.55;91.62
15193;BME280;7697;51.630;7.484;2024-01-30T15:05:33;-17526.91;;;13.57;91.79
15193;BME280;7697;51.630;7.484;2024-01-30T15:10:36;-17526.25;;;13.55;91.55
15193;BME280;7697;51.630;7.484;2024-01-30T15:15:38;-17525.41;;;13.52;91.58
15193;BME280;7697;51.630;7.484;2024-01-30T15:20:40;-17523.38;;;13.46;92.12
15193;BME280;7697;51.630;7.484;2024-01-30T15:25:43;-17524.91;;;13.51;91.54
15193;BME280;7697;51.630;7.484;2024-01-30T15:30:45;-17523.72;;;13.47;91.71
15193;BME280;7697;51.630;7.484;2024-01-30T15:35:47;-17522.88;;;13.45;92.07
15193;BME280;7697;51.630;7.484;2024-01-30T15:40:50;-17522.22;;;13.43;91.66
15193;BME280;7697;51.630;7.484;2024-01-30T15:45:51;-17519.38;;;13.34;92.23
15193;BME280;7697;51.630;7.484;2024-01-30T15:50:53;-17516.69;;;13.26;91.17
15193;BME280;7697;51.630;7.484;2024-01-30T15:55:56;-17511.63;;;13.11;88.67
15193;BME280;7697;51.630;7.484;2024-01-30T16:00:58;-17506.94;;;12.97;87.77
15193;BME280;7697;51.630;7.484;2024-01-30T16:06:00;-17502.59;;;12.84;87.83
15193;BME280;7697;51.630;7.484;2024-01-30T16:11:05;-17500.22;;;12.76;87.97
15193;BME280;7697;51.630;7.484;2024-01-30T16:16:08;-17497.88;;;12.69;88.01
15193;BME280;7697;51.630;7.484;2024-01-30T16:21:10;-17495.38;;;12.62;87.23
15193;BME280;7697;51.630;7.484;2024-01-30T16:26:14;-17494.38;;;12.59;85.51
15193;BME280;7697;51.630;7.484;2024-01-30T16:31:16;-17490.84;;;12.48;85.29
15193;BME280;7697;51.630;7.484;2024-01-30T16:36:20;-17487.81;;;12.39;83.92
15193;BME280;7697;51.630;7.484;2024-01-30T16:41:23;-17483.78;;;12.27;83.30
15193;BME280;7697;51.630;7.484;2024-01-30T16:46:25;-17483.44;;;12.26;82.35
15193;BME280;7697;51.630;7.484;2024-01-30T16:51:27;-17479.94;;;12.15;81.83
15193;BME280;7697;51.630;7.484;2024-01-30T16:56:30;-17477.75;;;12.09;81.44
15193;BME280;7697;51.630;7.484;2024-01-30T17:01:34;-17475.56;;;12.02;81.44
15193;BME280;7697;51.630;7.484;2024-01-30T17:06:35;-17471.03;;;11.88;80.62
15193;BME280;7697;51.630;7.484;2024-01-30T17:11:39;-17468.53;;;11.81;80.71
15193;BME280;7697;51.630;7.484;2024-01-30T17:16:41;-17464.66;;;11.69;81.22
15193;BME280;7697;51.630;7.484;2024-01-30T17:21:43;-17462.16;;;11.61;81.00
15193;BME280;7697;51.630;7.484;2024-01-30T17:26:47;-17459.47;;;11.53;80.64
15193;BME280;7697;51.630;7.484;2024-01-30T17:31:50;-17458.28;;;11.50;81.02
15193;BME280;7697;51.630;7.484;2024-01-30T17:36:52;-17459.13;;;11.52;81.65
15193;BME280;7697;51.630;7.484;2024-01-30T17:41:55;-17457.09;;;11.46;81.02
15193;BME280;7697;51.630;7.484;2024-01-30T17:46:57;-17459.28;;;11.53;80.62
15193;BME280;7697;51.630;7.484;2024-01-30T17:51:59;-17459.97;;;11.55;80.81
15193;BME280;7697;51.630;7.484;2024-01-30T17:57:03;-17458.78;;;11.51;80.69
15193;BME280;7697;51.630;7.484;2024-01-30T18:02:05;-17460.28;;;11.56;81.02
15193;BME280;7697;51.630;7.484;2024-01-30T18:07:07;-17458.97;;;11.52;80.96
15193;BME280;7697;51.630;7.484;2024-01-30T18:12:10;-17457.09;;;11.46;81.75
15193;BME280;7697;51.630;7.484;2024-01-30T18:17:13;-17455.78;;;11.42;82.21
15193;BME280;7697;51.630;7.484;2024-01-30T18:22:15;-17452.91;;;11.34;84.45
15193;BME280;7697;51.630;7.484;2024-01-30T18:27:18;-17446.03;;;11.13;87.66
15193;BME280;7697;51.630;7.484;2024-01-30T18:32:21;-17440.34;;;10.96;90.52
15193;BME280;7697;51.630;7.484;2024-01-30T18:37:23;-17436.13;;;10.83;91.87
15193;BME280;7697;51.630;7.484;2024-01-30T18:42:26;-17432.78;;;10.73;92.87
15193;BME280;7697;51.630;7.484;2024-01-30T18:47:28;-17432.28;;;10.71;93.69
15193;BME280;7697;51.630;7.484;2024-01-30T18:52:30;-17432.28;;;10.71;94.04
15193;BME280;7697;51.630;7.484;2024-01-30T18:57:33;-17429.44;;;10.63;93.99
15193;BME280;7697;51.630;7.484;2024-01-30T19:02:36;-17426.41;;;10.53;94.21
15193;BME280;7697;51.630;7.484;2024-01-30T19:07:38;-17425.06;;;10.49;94.09
15193;BME280;7697;51.630;7.484;2024-01-30T19:12:41;-17423.41;;;10.44;93.64
15193;BME280;7697;51.630;7.484;2024-01-30T19:17:44;-17420.72;;;10.36;93.14
15193;BME280;7697;51.630;7.484;2024-01-30T19:22:46;-17419.53;;;10.33;92.68
15193;BME280;7697;51.630;7.484;2024-01-30T19:27:49;-17417.19;;;10.26;92.52
15193;BME280;7697;51.630;7.484;2024-01-30T19:32:51;-17418.53;;;10.30;92.21
15193;BME280;7697;51.630;7.484;2024-01-30T19:37:52;-17417.69;;;10.27;91.05
15193;BME280;7697;51.630;7.484;2024-01-30T19:42:56;-17415.50;;;10.21;92.07
15193;BME280;7697;51.630;7.484;2024-01-30T19:47:57;-17413.31;;;10.14;91.70
15193;BME280;7697;51.630;7.484;2024-01-30T19:52:59;-17412.31;;;10.11;91.98
15193;BME280;7697;51.630;7.484;2024-01-30T19:58:02;-17412.66;;;10.12;91.65
15193;BME280;7697;51.630;7.484;2024-01-30T20:03:05;-17411.66;;;10.09;92.12
15193;BME280;7697;51.630;7.484;2024-01-30T20:08:06;-17407.63;;;9.97;93.24
15193;BME280;7697;51.630;7.484;2024-01-30T20:13:10;-17405.94;;;9.92;93.14
15193;BME280;7697;51.630;7.484;2024-01-30T20:18:11;-17405.94;;;9.92;93.93
15193;BME280;7697;51.630;7.484;2024-01-30T20:23:14;-17405.28;;;9.90;93.33
15193;BME280;7697;51.630;7.484;2024-01-30T20:28:17;-17404.44;;;9.87;93.44
15193;BME280;7697;51.630;7.484;2024-01-30T20:33:19;-17403.25;;;9.84;93.98
15193;BME280;7697;51.630;7.484;2024-01-30T20:38:21;-17403.09;;;9.83;94.21
15193;BME280;7697;51.630;7.484;2024-01-30T20:43:24;-17402.59;;;9.82;94.47
15193;BME280;7697;51.630;7.484;2024-01-30T20:48:26;-17401.56;;;9.78;94.91
15193;BME280;7697;51.630;7.484;2024-01-30T20:53:27;-17401.25;;;9.77;95.35
15193;BME280;7697;51.630;7.484;2024-01-30T20:58:30;-17399.22;;;9.71;95.26
15193;BME280;7697;51.630;7.484;2024-01-30T21:03:33;-17399.56;;;9.72;96.15
15193;BME280;7697;51.630;7.484;2024-01-30T21:08:35;-17398.91;;;9.70;95.47
15193;BME280;7697;51.630;7.484;2024-01-30T21:13:39;-17397.88;;;9.67;96.50
15193;BME280;7697;51.630;7.484;2024-01-30T21:18:41;-17396.53;;;9.63;96.58
15193;BME280;7697;51.630;7.484;2024-01-30T21:23:43;-17396.22;;;9.62;96.66
15193;BME280;7697;51.630;7.484;2024-01-30T21:28:46;-17394.88;;;9.58;97.20
15193;BME280;7697;51.630;7.484;2024-01-30T21:33:48;-17394.88;;;9.58;97.37
15193;BME280;7697;51.630;7.484;2024-01-30T21:38:49;-17395.19;;;9.59;97.15
15193;BME280;7697;51.630;7.484;2024-01-30T21:43:52;-17395.72;;;9.61;97.60
15193;BME280;7697;51.630;7.484;2024-01-30T21:48:54;-17394.69;;;9.58;97.53
15193;BME280;7697;51.630;7.484;2024-01-30T21:53:56;-17394.19;;;9.56;98.32
15193;BME280;7697;51.630;7.484;2024-01-30T21:58:59;-17391.00;;;9.47;98.41
15193;BME280;7697;51.630;7.484;2024-01-30T22:04:00;-17391.53;;;9.48;98.66
15193;BME280;7697;51.630;7.484;2024-01-30T22:09:02;-17390.34;;;9.45;98.71
15193;BME280;7697;51.630;7.484;2024-01-30T22:14:06;-17390.16;;;9.44;99.21
15193;BME280;7697;51.630;7.484;2024-01-30T22:19:08;-17388.81;;;9.40;99.67
15193;BME280;7697;51.630;7.484;2024-01-30T22:24:11;-17388.50;;;9.39;100.00
15193;BME280;7697;51.630;7.484;2024-01-30T22:29:14;-17388.81;;;9.40;100.00
15193;BME280;7697;51.630;7.484;2024-01-30T22:34:15;-17389.16;;;9.41;100.00
15193;BME280;7697;51.630;7.484;2024-01-30T22:39:17;-17388.66;;;9.39;100.00
15193;BME280;7697;51.630;7.484;2024-01-30T22:44:20;-17386.81;;;9.34;100.00
15193;BME280;7697;51.630;7.484;2024-01-30T22:49:22;-17386.47;;;9.33;100.00
15193;BME280;7697;51.630;7.484;2024-01-30T22:54:24;-17384.47;;;9.27;100.00
15193;BME280;7697;51.630;7.484;2024-01-30T22:59:27;-17381.44;;;9.18;100.00
15193;BME280;7697;51.630;7.484;2024-01-30T23:04:28;-17377.59;;;9.06;100.00
15193;BME280;7697;51.630;7.484;2024-01-30T23:09:30;-17374.06;;;8.95;100.00
15193;BME280;7697;51.630;7.484;2024-01-30T23:14:33;-17372.06;;;8.89;100.00
15193;BME280;7697;51.630;7.484;2024-01-30T23:19:35;-17371.38;;;8.87;100.00
15193;BME280;7697;51.630;7.484;2024-01-30T23:24:37;-17369.72;;;8.82;100.00
15193;BME280;7697;51.630;7.484;2024-01-30T23:29:40;-17374.25;;;8.96;100.00
15193;BME280;7697;51.630;7.484;2024-01-30T23:34:42;-17375.41;;;8.99;100.00
15193;BME280;7697;51.630;7.484;2024-01-30T23:39:44;-17373.91;;;8.95;100.00
15193;BME280;7697;51.630;7.484;2024-01-30T23:44:47;-17374.41;;;8.96;100.00
15193;BME280;7697;51.630;7.484;2024-01-30T23:49:49;-17369.72;;;8.82;100.00
15193;BME280;7697;51.630;7.484;2024-01-30T23:54:50;-17367.69;;;8.76;100.00
15193;BME280;7697;51.630;7.484;2024-01-30T23:59:54;-17365.19;;;8.69;100.00
